This is the latest recevied weather packets stored in our database for station/object W1CAT. If no packets are shown the sender has not sent any weather packets the latest 10 day(s).
| Time | Temp. | Humidity | Pressure | Rain* | Wind** | Luminosity | Snow |
|---|---|---|---|---|---|---|---|
| 1777578735 | 10° C | 55% | - | 0 mm | - | - | - |
| 1777578435 | 11.67° C | 53% | - | 0 mm | - | - | - |
| 1777578130 | 11.67° C | 55% | - | 0 mm | - | - | - |
| 1777577826 | 10.56° C | 56% | - | 0 mm | - | - | - |
| 1777577522 | 9.44° C | 55% | - | 0 mm | - | - | - |
| 1777577219 | 8.89° C | 57% | - | 0 mm | - | - | - |
| 1777576915 | 8.89° C | 58% | - | 0 mm | - | - | - |
| 1777576610 | 6.11° C | 71% | - | 0 mm | - | - | - |
| 1777576305 | 6.11° C | 71% | - | 0 mm | - | - | - |
| 1777576002 | 6.11° C | 70% | - | 0 mm | - | - | - |
| 1777575698 | 7.22° C | 67% | - | 0 mm | - | - | - |
| 1777575389 | 7.22° C | 69% | - | 0 mm | - | - | - |
| 1777575085 | 7.22° C | 76% | - | 0 mm | - | - | - |
| 1777574781 | 6.11° C | 83% | - | 1.78 mm | - | - | - |
| 1777574479 | 5.56° C | 81% | - | 4.83 mm | - | - | - |
| 1777574175 | 7.22° C | 79% | - | 6.1 mm | - | - | - |
| 1777573869 | 7.22° C | 81% | - | 7.11 mm | - | - | - |
| 1777573564 | 6.11° C | 82% | - | 3.05 mm | - | - | - |
| 1777573261 | 5.56° C | 84% | - | 0 mm | - | - | - |
| 1777572957 | 4.44° C | 84% | - | 0 mm | - | - | - |
| 1777572653 | 3.33° C | 87% | - | 0 mm | - | - | - |
| 1777572347 | 2.22° C | 91% | - | 0 mm | - | - | - |
| 1777572044 | 1.11° C | 93% | - | 0 mm | - | - | - |
| 1777571744 | 0.56° C | 93% | - | 0 mm | - | - | - |
| 1777571442 | 0.56° C | 93% | - | 0 mm | - | - | - |
* Rain latest hour (hover to see other rain measurements)
** Current wind speed in m/s (hover to see current wind gust speed)